createdAt,value
2023-03-05T00:01:47.258Z,6.63
2023-03-05T00:04:15.044Z,6.40
2023-03-05T00:06:41.792Z,6.18
2023-03-05T00:09:08.422Z,6.65
2023-03-05T00:11:34.900Z,6.60
2023-03-05T00:14:03.969Z,7.22
2023-03-05T00:16:31.206Z,6.95
2023-03-05T00:18:59.526Z,6.78
2023-03-05T00:21:31.714Z,7.00
2023-03-05T00:24:01.495Z,7.00
2023-03-05T00:26:28.332Z,7.22
2023-03-05T00:28:56.192Z,7.15
2023-03-05T00:31:31.818Z,7.35
2023-03-05T00:34:03.907Z,7.88
2023-03-05T00:36:30.903Z,7.55
2023-03-05T00:38:57.713Z,7.63
2023-03-05T00:41:24.334Z,7.65
2023-03-05T00:43:50.759Z,7.00
2023-03-05T00:46:17.355Z,7.00
2023-03-05T00:48:43.872Z,7.35
2023-03-05T00:51:10.550Z,7.03
2023-03-05T00:53:37.010Z,7.38
2023-03-05T00:56:03.649Z,7.15
2023-03-05T00:58:30.095Z,7.70
2023-03-05T01:01:01.358Z,7.82
2023-03-05T01:03:27.865Z,7.43
2023-03-05T01:05:54.343Z,8.15
2023-03-05T01:08:20.790Z,7.68
2023-03-05T01:10:47.435Z,7.32
2023-03-05T01:13:14.861Z,7.45
2023-03-05T01:15:41.611Z,8.05
2023-03-05T01:18:08.090Z,8.18
2023-03-05T01:20:34.764Z,7.88
2023-03-05T01:23:01.845Z,7.60
2023-03-05T01:25:28.617Z,7.63
2023-03-05T01:27:55.092Z,8.20
2023-03-05T01:30:21.566Z,8.48
2023-03-05T01:32:48.054Z,8.27
2023-03-05T01:35:21.070Z,8.90
2023-03-05T01:37:47.910Z,9.10
2023-03-05T01:40:17.092Z,8.20
2023-03-05T01:42:48.570Z,8.38
2023-03-05T01:45:17.835Z,8.20
2023-03-05T01:47:44.772Z,8.93
2023-03-05T01:50:17.335Z,9.32
2023-03-05T01:52:47.121Z,9.10
2023-03-05T01:55:16.137Z,8.98
2023-03-05T01:57:46.474Z,9.00
2023-03-05T02:00:16.328Z,7.65
2023-03-05T02:02:44.776Z,8.32
2023-03-05T02:05:15.086Z,7.85
2023-03-05T02:07:43.041Z,10.40
2023-03-05T02:10:20.507Z,10.75
2023-03-05T02:12:48.252Z,10.23
2023-03-05T02:15:15.127Z,8.15
2023-03-05T02:17:41.617Z,8.07
2023-03-05T02:20:12.528Z,6.90
2023-03-05T02:22:39.063Z,7.28
2023-03-05T02:25:20.936Z,7.57
2023-03-05T02:28:35.327Z,7.97
2023-03-05T02:31:02.100Z,7.55
2023-03-05T02:33:28.578Z,7.40
2023-03-05T02:35:55.087Z,7.10
2023-03-05T02:38:22.931Z,7.28
2023-03-05T02:40:49.385Z,7.22
2023-03-05T02:43:15.857Z,7.40
2023-03-05T02:45:42.504Z,7.18
2023-03-05T02:48:08.983Z,7.47
2023-03-05T02:50:35.843Z,6.95
2023-03-05T02:53:02.383Z,7.13
2023-03-05T02:55:28.844Z,7.57
2023-03-05T02:57:55.274Z,7.82
2023-03-05T03:00:21.998Z,7.00
2023-03-05T03:02:48.558Z,6.85
2023-03-05T03:05:15.367Z,7.18
2023-03-05T03:07:41.961Z,6.85
2023-03-05T03:10:09.055Z,7.03
2023-03-05T03:12:39.947Z,6.85
2023-03-05T03:15:07.971Z,6.90
2023-03-05T03:17:35.822Z,6.85
2023-03-05T03:20:04.180Z,6.32
2023-03-05T03:22:30.667Z,6.70
2023-03-05T03:24:57.100Z,6.20
2023-03-05T03:27:23.703Z,6.22
2023-03-05T03:29:50.210Z,6.65
2023-03-05T03:32:16.776Z,6.15
2023-03-05T03:34:44.595Z,6.03
2023-03-05T03:37:11.169Z,6.13
2023-03-05T03:39:37.615Z,6.47
2023-03-05T03:42:04.274Z,6.63
2023-03-05T03:44:30.899Z,5.78
2023-03-05T03:46:57.328Z,5.90
2023-03-05T03:49:25.913Z,6.03
2023-03-05T03:51:57.775Z,6.70
2023-03-05T03:54:24.854Z,5.95
2023-03-05T03:56:51.299Z,5.97
2023-03-05T03:59:17.732Z,6.35
2023-03-05T04:01:44.322Z,6.03
2023-03-05T04:04:12.268Z,5.65
2023-03-05T04:06:38.902Z,5.95
2023-03-05T04:09:08.038Z,5.95
2023-03-05T04:11:35.569Z,7.57
2023-03-05T04:14:02.400Z,6.57
2023-03-05T04:16:28.891Z,6.55
2023-03-05T04:18:55.342Z,6.33
2023-03-05T04:21:21.864Z,7.00
2023-03-05T04:23:48.354Z,6.60
2023-03-05T04:26:14.803Z,6.97
2023-03-05T04:28:41.287Z,6.75
2023-03-05T04:31:07.796Z,6.70
2023-03-05T04:33:34.209Z,7.63
2023-03-05T04:36:00.773Z,7.82
2023-03-05T04:38:27.238Z,8.73
2023-03-05T04:40:53.652Z,8.10
2023-03-05T04:43:20.352Z,8.23
2023-03-05T04:45:46.771Z,8.30
2023-03-05T04:48:13.266Z,8.45
2023-03-05T04:50:39.735Z,7.63
2023-03-05T04:53:06.607Z,8.35
2023-03-05T04:55:33.341Z,7.95
2023-03-05T04:57:59.892Z,8.63
2023-03-05T05:00:26.384Z,9.57
2023-03-05T05:02:53.317Z,9.10
2023-03-05T05:05:22.474Z,9.68
2023-03-05T05:07:49.098Z,9.40
2023-03-05T05:10:16.114Z,10.02
2023-03-05T05:12:43.262Z,9.65
2023-03-05T05:15:11.484Z,9.80
2023-03-05T05:17:37.910Z,10.45
2023-03-05T05:20:08.687Z,10.48
2023-03-05T05:22:35.561Z,10.20
2023-03-05T05:25:02.111Z,10.00
2023-03-05T05:27:29.101Z,9.75
2023-03-05T05:29:56.224Z,9.20
2023-03-05T05:32:24.133Z,9.50
2023-03-05T05:34:59.800Z,9.70
2023-03-05T05:37:26.917Z,9.48
2023-03-05T05:39:53.424Z,9.85
2023-03-05T05:42:21.933Z,10.02
2023-03-05T05:44:48.371Z,9.55
2023-03-05T05:47:16.043Z,10.52
2023-03-05T05:49:42.628Z,10.45
2023-03-05T05:52:10.242Z,10.30
2023-03-05T05:54:36.666Z,10.02
2023-03-05T05:57:03.230Z,10.25
2023-03-05T05:59:30.829Z,10.68
2023-03-05T06:01:57.403Z,9.30
2023-03-05T06:04:23.902Z,8.95
2023-03-05T06:06:50.544Z,9.07
2023-03-05T06:09:17.105Z,9.82
2023-03-05T06:11:43.645Z,9.40
2023-03-05T06:14:11.711Z,9.90
2023-03-05T06:16:38.525Z,10.20
2023-03-05T06:19:05.378Z,9.50
2023-03-05T06:21:32.062Z,9.32
2023-03-05T06:24:01.157Z,8.70
2023-03-05T06:26:27.678Z,9.13
2023-03-05T06:28:54.783Z,8.95
2023-03-05T06:31:25.615Z,8.88
2023-03-05T06:33:54.181Z,9.82
2023-03-05T06:36:22.062Z,9.60
2023-03-05T06:38:49.348Z,10.05
2023-03-05T06:41:19.411Z,10.77
2023-03-05T06:43:47.436Z,11.05
2023-03-05T06:46:28.119Z,10.40
2023-03-05T06:48:59.470Z,11.07
2023-03-05T06:51:28.567Z,12.52
2023-03-05T06:53:55.769Z,12.50
2023-03-05T06:56:22.600Z,11.77
2023-03-05T06:58:50.997Z,12.27
2023-03-05T07:01:18.131Z,12.02
2023-03-05T07:03:44.744Z,12.93
2023-03-05T07:06:14.129Z,18.73
2023-03-05T07:08:40.655Z,25.58
2023-03-05T07:11:15.534Z,27.02
2023-03-05T07:13:43.209Z,21.42
2023-03-05T07:16:12.371Z,15.32
2023-03-05T07:18:38.912Z,14.25
2023-03-05T07:21:07.197Z,11.77
2023-03-05T07:23:34.348Z,10.40
2023-03-05T07:26:02.299Z,10.13
2023-03-05T07:28:28.736Z,11.20
2023-03-05T07:30:59.605Z,10.68
2023-03-05T07:33:26.962Z,10.85
2023-03-05T07:35:54.032Z,13.10
2023-03-05T07:38:20.753Z,12.15
2023-03-05T07:40:47.448Z,13.10
2023-03-05T07:43:13.887Z,13.18
2023-03-05T07:45:41.562Z,11.52
2023-03-05T07:48:09.010Z,11.93
2023-03-05T07:50:35.473Z,11.35
2023-03-05T07:53:02.089Z,12.05
2023-03-05T07:55:28.591Z,12.50
2023-03-05T07:57:55.256Z,11.48
2023-03-05T08:00:22.119Z,12.13
2023-03-05T08:02:50.426Z,12.10
2023-03-05T08:05:17.064Z,12.00
2023-03-05T08:07:43.542Z,12.10
2023-03-05T08:10:10.760Z,13.30
2023-03-05T08:12:37.286Z,12.18
2023-03-05T08:15:03.889Z,11.20
2023-03-05T08:17:30.324Z,13.38
2023-03-05T08:19:59.587Z,12.55
2023-03-05T08:22:26.911Z,12.98
2023-03-05T08:24:53.359Z,13.00
2023-03-05T08:27:19.832Z,13.68
2023-03-05T08:29:46.513Z,15.07
2023-03-05T08:32:13.016Z,13.43
2023-03-05T08:34:39.540Z,13.68
2023-03-05T08:37:07.850Z,13.27
2023-03-05T08:39:34.320Z,12.63
2023-03-05T08:42:00.772Z,12.38
2023-03-05T08:44:27.259Z,18.40
2023-03-05T08:46:54.200Z,18.48
2023-03-05T08:49:20.671Z,16.38
2023-03-05T08:51:47.129Z,16.70
2023-03-05T08:54:13.629Z,16.48
2023-03-05T08:56:40.068Z,15.27
2023-03-05T08:59:06.869Z,12.73
2023-03-05T09:01:33.458Z,9.18
2023-03-05T09:04:00.344Z,8.45
2023-03-05T09:06:27.734Z,6.85
2023-03-05T09:08:54.452Z,7.70
2023-03-05T09:11:21.767Z,6.57
2023-03-05T09:13:48.402Z,7.07
2023-03-05T09:16:16.981Z,6.78
2023-03-05T09:18:43.881Z,6.53
2023-03-05T09:21:16.470Z,6.18
2023-03-05T09:23:43.194Z,6.00
2023-03-05T09:26:15.723Z,6.40
2023-03-05T09:28:42.289Z,6.28
2023-03-05T09:31:09.760Z,6.28
2023-03-05T09:33:37.086Z,5.50
2023-03-05T09:36:04.506Z,5.85
2023-03-05T09:38:31.146Z,5.78
2023-03-05T09:41:16.331Z,5.20
2023-03-05T09:44:00.932Z,5.97
2023-03-05T09:46:53.252Z,5.60
2023-03-05T09:49:41.563Z,5.22
2023-03-05T09:52:15.340Z,5.45
2023-03-05T09:54:48.009Z,5.95
2023-03-05T09:57:20.653Z,5.40
2023-03-05T09:59:52.999Z,6.18
2023-03-05T10:02:24.017Z,5.63
2023-03-05T10:05:08.930Z,5.40
2023-03-05T10:07:38.790Z,5.63
2023-03-05T10:10:10.796Z,5.95
2023-03-05T10:12:45.640Z,6.60
2023-03-05T10:15:14.287Z,5.93
2023-03-05T10:18:14.355Z,5.80
2023-03-05T10:20:40.881Z,6.00
2023-03-05T10:23:19.439Z,5.82
2023-03-05T10:26:07.485Z,5.60
2023-03-05T10:28:54.949Z,5.82
2023-03-05T10:31:35.258Z,4.75
2023-03-05T10:34:12.825Z,5.00
2023-03-05T10:36:48.521Z,4.95
2023-03-05T10:39:45.725Z,5.10
2023-03-05T10:42:36.566Z,5.90
2023-03-05T10:45:30.533Z,6.20
2023-03-05T10:48:06.162Z,6.15
2023-03-05T10:50:37.087Z,6.40
2023-03-05T10:53:34.033Z,4.97
2023-03-05T10:56:05.516Z,5.03
2023-03-05T10:58:32.416Z,4.90
2023-03-05T11:01:24.745Z,5.00
2023-03-05T11:03:59.721Z,5.00
2023-03-05T11:06:45.739Z,5.60
2023-03-05T11:09:14.871Z,4.93
2023-03-05T11:11:41.315Z,5.47
2023-03-05T11:14:30.817Z,5.00
2023-03-05T11:16:57.645Z,5.00
2023-03-05T11:19:33.142Z,5.28
2023-03-05T11:22:08.267Z,4.85
2023-03-05T11:24:36.163Z,5.90
2023-03-05T11:27:20.989Z,5.40
2023-03-05T11:29:49.293Z,5.57
2023-03-05T11:32:21.309Z,5.85
2023-03-05T11:34:48.007Z,5.35
2023-03-05T11:37:30.731Z,5.18
2023-03-05T11:40:22.794Z,5.07
2023-03-05T11:42:56.444Z,5.63
2023-03-05T11:45:24.155Z,5.30
2023-03-05T11:47:54.019Z,6.05
2023-03-05T11:50:24.843Z,5.03
2023-03-05T11:53:00.013Z,5.70
2023-03-05T11:55:53.255Z,5.50
2023-03-05T11:58:25.886Z,4.90
2023-03-05T12:00:52.744Z,4.90
2023-03-05T12:03:34.173Z,5.22
2023-03-05T12:06:07.554Z,5.35
2023-03-05T12:08:37.317Z,5.10
2023-03-05T12:11:18.322Z,4.85
2023-03-05T12:14:15.175Z,4.97
2023-03-05T12:16:52.161Z,4.68
2023-03-05T12:19:41.343Z,5.65
2023-03-05T12:22:22.296Z,5.43
2023-03-05T12:24:49.745Z,5.70
2023-03-05T12:27:32.152Z,5.10
2023-03-05T12:30:01.483Z,4.85
2023-03-05T12:32:31.682Z,5.25
2023-03-05T12:35:00.062Z,5.30
2023-03-05T12:37:27.157Z,5.65
2023-03-05T12:40:18.211Z,5.47
2023-03-05T12:42:51.759Z,5.07
2023-03-05T12:45:19.553Z,4.57
2023-03-05T12:47:47.250Z,4.90
2023-03-05T12:50:31.826Z,5.00
2023-03-05T12:53:04.379Z,4.22
2023-03-05T12:55:34.963Z,5.40
2023-03-05T12:58:15.267Z,4.18
2023-03-05T13:01:17.034Z,4.60
2023-03-05T13:03:56.703Z,3.60
2023-03-05T13:06:26.299Z,4.38
2023-03-05T13:09:15.197Z,4.53
2023-03-05T13:11:43.182Z,5.07
2023-03-05T13:14:39.676Z,3.67
2023-03-05T13:17:38.436Z,3.67
2023-03-05T13:20:40.970Z,3.30
2023-03-05T13:23:24.767Z,3.58
2023-03-05T13:26:01.974Z,3.50
2023-03-05T13:28:29.350Z,3.33
2023-03-05T13:31:04.587Z,2.97
2023-03-05T13:33:37.358Z,3.58
2023-03-05T13:36:04.804Z,3.30
2023-03-05T13:38:39.118Z,2.75
2023-03-05T13:41:05.747Z,3.83
2023-03-05T13:43:32.302Z,3.50
2023-03-05T13:45:59.480Z,3.65
2023-03-05T13:48:27.111Z,3.20
2023-03-05T13:50:56.460Z,3.30
2023-03-05T13:53:28.452Z,3.30
2023-03-05T13:56:06.545Z,3.70
2023-03-05T13:58:54.930Z,3.85
2023-03-05T14:01:27.178Z,4.10
2023-03-05T14:03:57.394Z,4.45
2023-03-05T14:06:25.615Z,2.90
2023-03-05T14:08:53.979Z,3.22
2023-03-05T14:11:20.540Z,3.00
2023-03-05T14:13:48.033Z,3.00
2023-03-05T14:16:24.592Z,2.90
2023-03-05T14:18:58.978Z,2.70
2023-03-05T14:21:25.566Z,2.40
2023-03-05T14:23:54.808Z,2.17
2023-03-05T14:26:31.104Z,2.40
2023-03-05T14:29:02.979Z,2.40
2023-03-05T14:31:32.777Z,2.60
2023-03-05T14:34:05.231Z,2.53
2023-03-05T14:36:33.598Z,2.60
2023-03-05T14:39:01.027Z,2.08
2023-03-05T14:41:33.199Z,2.35
2023-03-05T14:43:59.747Z,2.63
2023-03-05T14:46:26.371Z,2.58
2023-03-05T14:48:52.930Z,2.90
2023-03-05T14:51:19.398Z,3.53
2023-03-05T14:53:47.907Z,3.47
2023-03-05T14:56:19.122Z,4.03
2023-03-05T14:58:45.623Z,3.28
2023-03-05T15:01:12.659Z,3.03
2023-03-05T15:03:41.441Z,2.83
2023-03-05T15:06:17.924Z,2.63
2023-03-05T15:08:44.381Z,2.67
2023-03-05T15:11:11.556Z,2.70
2023-03-05T15:13:38.073Z,3.22
2023-03-05T15:16:05.311Z,2.22
2023-03-05T15:18:31.766Z,2.58
2023-03-05T15:20:58.254Z,2.20
2023-03-05T15:23:24.818Z,2.00
2023-03-05T15:25:51.233Z,1.95
2023-03-05T15:28:17.766Z,2.22
2023-03-05T15:30:47.234Z,2.17
2023-03-05T15:33:15.856Z,2.10
2023-03-05T15:35:42.546Z,2.42
2023-03-05T15:38:09.140Z,2.10
2023-03-05T15:40:35.686Z,2.40
2023-03-05T15:43:02.211Z,3.13
2023-03-05T15:45:31.399Z,2.40
2023-03-05T15:47:58.159Z,1.90
2023-03-05T15:50:24.669Z,1.88
2023-03-05T15:52:51.369Z,2.05
2023-03-05T15:55:20.785Z,1.83
2023-03-05T15:57:49.137Z,1.70
2023-03-05T16:00:18.608Z,1.70
2023-03-05T16:02:45.079Z,1.80
2023-03-05T16:05:11.731Z,2.20
2023-03-05T16:07:40.783Z,2.65
2023-03-05T16:10:07.944Z,3.05
2023-03-05T16:12:40.632Z,2.90
2023-03-05T16:15:09.812Z,2.65
2023-03-05T16:17:36.842Z,2.50
2023-03-05T16:20:04.987Z,2.50
2023-03-05T16:22:32.620Z,3.33
2023-03-05T16:25:01.221Z,3.10
2023-03-05T16:27:28.399Z,4.35
2023-03-05T16:29:54.911Z,3.63
2023-03-05T16:32:21.514Z,3.33
2023-03-05T16:34:48.097Z,3.63
2023-03-05T16:37:22.112Z,3.13
2023-03-05T16:39:49.270Z,2.97
2023-03-05T16:42:15.931Z,3.25
2023-03-05T16:44:43.415Z,3.33
2023-03-05T16:47:12.204Z,2.90
2023-03-05T16:49:39.369Z,2.50
2023-03-05T16:52:18.385Z,2.55
2023-03-05T16:54:46.697Z,2.85
2023-03-05T16:57:13.283Z,2.58
2023-03-05T16:59:39.751Z,3.70
2023-03-05T17:02:06.391Z,2.92
2023-03-05T17:04:33.448Z,2.70
2023-03-05T17:06:59.894Z,2.40
2023-03-05T17:09:26.395Z,2.60
2023-03-05T17:11:53.309Z,3.40
2023-03-05T17:14:20.343Z,2.92
2023-03-05T17:16:46.960Z,4.00
2023-03-05T17:19:13.659Z,4.20
2023-03-05T17:21:42.334Z,3.30
2023-03-05T17:24:09.473Z,3.65
2023-03-05T17:26:36.480Z,3.72
2023-03-05T17:29:04.452Z,3.03
2023-03-05T17:31:31.013Z,3.85
2023-03-05T17:33:57.833Z,3.78
2023-03-05T17:36:24.820Z,4.22
2023-03-05T17:38:51.647Z,4.18
2023-03-05T17:41:18.642Z,3.30
2023-03-05T17:43:45.224Z,3.63
2023-03-05T17:46:11.927Z,3.60
2023-03-05T17:48:39.275Z,4.25
2023-03-05T17:51:07.602Z,5.15
2023-03-05T17:53:35.177Z,5.03
2023-03-05T17:56:02.057Z,4.70
2023-03-05T17:58:28.484Z,4.25
2023-03-05T18:00:55.161Z,4.80
2023-03-05T18:03:21.692Z,4.30
2023-03-05T18:05:48.223Z,4.72
2023-03-05T18:08:14.704Z,4.72
2023-03-05T18:10:41.162Z,4.45
2023-03-05T18:13:07.623Z,5.60
2023-03-05T18:15:34.124Z,5.18
2023-03-05T18:18:00.674Z,5.10
2023-03-05T18:20:29.535Z,5.50
2023-03-05T18:22:57.642Z,6.07
2023-03-05T18:25:30.609Z,6.63
2023-03-05T18:28:01.255Z,5.40
2023-03-05T18:30:28.379Z,4.85
2023-03-05T18:32:55.296Z,6.03
2023-03-05T18:35:22.249Z,7.63
2023-03-05T18:37:48.706Z,6.78
2023-03-05T18:40:19.539Z,5.50
2023-03-05T18:42:46.113Z,6.20
2023-03-05T18:45:16.791Z,7.85
2023-03-05T18:47:43.248Z,7.05
2023-03-05T18:50:11.691Z,6.95
2023-03-05T18:52:38.117Z,5.35
2023-03-05T18:55:05.002Z,6.47
2023-03-05T18:57:31.550Z,6.50
2023-03-05T18:59:58.000Z,5.90
2023-03-05T19:02:27.238Z,7.82
2023-03-05T19:04:53.661Z,7.25
2023-03-05T19:07:20.157Z,5.97
2023-03-05T19:09:59.660Z,5.80
2023-03-05T19:12:30.931Z,5.70
2023-03-05T19:14:59.382Z,8.52
2023-03-05T19:17:25.905Z,6.90
2023-03-05T19:19:52.968Z,6.50
2023-03-05T19:22:20.438Z,5.93
2023-03-05T19:24:47.055Z,5.93
2023-03-05T19:27:13.948Z,5.63
2023-03-05T19:29:41.948Z,6.80
2023-03-05T19:32:12.388Z,7.38
2023-03-05T19:34:39.000Z,6.35
2023-03-05T19:37:05.733Z,6.75
2023-03-05T19:39:33.117Z,6.55
2023-03-05T19:41:59.640Z,6.45
2023-03-05T19:44:26.543Z,6.88
2023-03-05T19:46:53.181Z,6.47
2023-03-05T19:49:19.882Z,6.38
2023-03-05T19:51:47.164Z,6.65
2023-03-05T19:54:15.323Z,5.55
2023-03-05T19:56:43.051Z,6.00
2023-03-05T19:59:09.961Z,6.35
2023-03-05T20:01:37.105Z,5.50
2023-03-05T20:04:05.376Z,7.03
2023-03-05T20:06:32.739Z,6.40
2023-03-05T20:08:59.727Z,6.70
2023-03-05T20:11:26.966Z,6.80
2023-03-05T20:13:55.072Z,6.70
2023-03-05T20:16:32.960Z,6.65
2023-03-05T20:18:59.760Z,6.70
2023-03-05T20:21:36.088Z,7.97
2023-03-05T20:24:05.405Z,7.45
2023-03-05T20:26:34.430Z,6.90
2023-03-05T20:29:01.730Z,6.93
2023-03-05T20:31:28.320Z,7.00
2023-03-05T20:33:56.197Z,7.22
2023-03-05T20:36:23.838Z,7.00
2023-03-05T20:38:50.480Z,7.95
2023-03-05T20:41:20.586Z,7.45
2023-03-05T20:43:49.035Z,7.40
2023-03-05T20:46:18.171Z,8.93
2023-03-05T20:48:47.967Z,10.85
2023-03-05T20:51:22.725Z,11.85
2023-03-05T20:53:50.483Z,12.80
2023-03-05T20:56:17.290Z,13.95
2023-03-05T20:58:44.013Z,12.25
2023-03-05T21:01:10.753Z,9.13
2023-03-05T21:03:38.745Z,8.63
2023-03-05T21:06:06.085Z,7.63
2023-03-05T21:08:32.619Z,7.40
2023-03-05T21:10:59.624Z,7.43
2023-03-05T21:13:26.431Z,7.63
2023-03-05T21:15:52.896Z,7.97
2023-03-05T21:18:19.393Z,7.53
2023-03-05T21:20:45.957Z,8.90
2023-03-05T21:23:12.466Z,8.50
2023-03-05T21:25:39.008Z,9.13
2023-03-05T21:28:09.260Z,9.60
2023-03-05T21:30:38.799Z,9.38
2023-03-05T21:33:07.737Z,9.65
2023-03-05T21:35:35.755Z,8.05
2023-03-05T21:38:04.912Z,7.55
2023-03-05T21:40:32.831Z,8.93
2023-03-05T21:42:59.348Z,9.18
2023-03-05T21:45:27.508Z,9.77
2023-03-05T21:47:54.238Z,9.38
2023-03-05T21:50:21.837Z,9.00
2023-03-05T21:52:48.459Z,8.80
2023-03-05T21:55:17.690Z,7.93
2023-03-05T21:57:44.917Z,7.18
2023-03-05T22:00:12.974Z,7.10
2023-03-05T22:02:42.767Z,6.85
2023-03-05T22:05:12.790Z,6.82
2023-03-05T22:07:40.091Z,7.35
2023-03-05T22:10:07.151Z,7.38
2023-03-05T22:12:53.102Z,7.63
2023-03-05T22:15:20.528Z,7.70
2023-03-05T22:17:47.038Z,7.30
2023-03-05T22:20:14.264Z,7.22
2023-03-05T22:22:41.658Z,6.90
2023-03-05T22:25:08.797Z,7.93
2023-03-05T22:27:35.311Z,8.55
2023-03-05T22:30:01.794Z,8.32
2023-03-05T22:32:28.276Z,7.88
2023-03-05T22:34:56.201Z,8.40
2023-03-05T22:37:22.667Z,8.23
2023-03-05T22:39:53.765Z,9.20
2023-03-05T22:42:20.320Z,9.25
2023-03-05T22:44:50.235Z,8.60
2023-03-05T22:47:16.696Z,9.18
2023-03-05T22:49:45.208Z,8.63
2023-03-05T22:52:13.190Z,9.23
2023-03-05T22:54:39.627Z,8.90
2023-03-05T22:57:06.107Z,13.30
2023-03-05T22:59:32.597Z,13.90
2023-03-05T23:01:59.062Z,12.13
2023-03-05T23:04:48.084Z,13.38
2023-03-05T23:07:25.896Z,13.93
2023-03-05T23:09:55.302Z,13.73
2023-03-05T23:12:22.092Z,12.40
2023-03-05T23:14:48.623Z,12.32
2023-03-05T23:17:15.394Z,12.18
2023-03-05T23:19:41.838Z,11.98
2023-03-05T23:22:10.498Z,10.55
2023-03-05T23:24:37.047Z,10.23
2023-03-05T23:27:07.702Z,9.02
2023-03-05T23:29:51.707Z,9.57
2023-03-05T23:32:18.217Z,8.73
2023-03-05T23:34:44.663Z,8.77
2023-03-05T23:37:12.631Z,9.70
2023-03-05T23:39:39.136Z,9.50
2023-03-05T23:42:05.805Z,9.55
2023-03-05T23:44:32.298Z,9.00
2023-03-05T23:46:58.804Z,9.48
2023-03-05T23:49:25.289Z,8.43
2023-03-05T23:51:51.817Z,8.68
2023-03-05T23:54:18.237Z,9.27
2023-03-05T23:56:47.291Z,9.10
2023-03-05T23:59:13.819Z,9.07
